sensor_id;sensor_type;location;lat;lon;timestamp;temperature;humidity
18506;DHT22;9382;53.242;10.438;2022-08-30T00:00:00;15.80;99.90
18506;DHT22;9382;53.242;10.438;2022-08-30T00:02:45;15.80;99.90
18506;DHT22;9382;53.242;10.438;2022-08-30T00:05:15;15.80;99.90
18506;DHT22;9382;53.242;10.438;2022-08-30T00:07:41;15.90;99.90
18506;DHT22;9382;53.242;10.438;2022-08-30T00:10:08;15.90;99.90
18506;DHT22;9382;53.242;10.438;2022-08-30T00:12:36;15.90;99.90
18506;DHT22;9382;53.242;10.438;2022-08-30T00:15:05;16.00;99.90
18506;DHT22;9382;53.242;10.438;2022-08-30T00:17:33;16.00;99.90
18506;DHT22;9382;53.242;10.438;2022-08-30T00:20:01;16.00;99.90
18506;DHT22;9382;53.242;10.438;2022-08-30T00:22:28;16.10;99.90
18506;DHT22;9382;53.242;10.438;2022-08-30T00:24:55;16.10;99.90
18506;DHT22;9382;53.242;10.438;2022-08-30T00:27:22;16.10;99.90
18506;DHT22;9382;53.242;10.438;2022-08-30T00:29:48;16.10;99.90
18506;DHT22;9382;53.242;10.438;2022-08-30T00:32:17;16.10;99.90
18506;DHT22;9382;53.242;10.438;2022-08-30T00:34:45;16.10;99.90
18506;DHT22;9382;53.242;10.438;2022-08-30T00:37:12;16.10;99.90
18506;DHT22;9382;53.242;10.438;2022-08-30T00:39:39;16.10;99.90
18506;DHT22;9382;53.242;10.438;2022-08-30T00:42:07;16.10;99.90
18506;DHT22;9382;53.242;10.438;2022-08-30T00:44:34;16.20;99.90
18506;DHT22;9382;53.242;10.438;2022-08-30T00:47:01;16.10;99.90
18506;DHT22;9382;53.242;10.438;2022-08-30T00:49:30;16.10;99.90
18506;DHT22;9382;53.242;10.438;2022-08-30T00:51:57;16.10;99.90
18506;DHT22;9382;53.242;10.438;2022-08-30T00:54:25;16.10;99.90
18506;DHT22;9382;53.242;10.438;2022-08-30T00:56:52;16.10;99.90
18506;DHT22;9382;53.242;10.438;2022-08-30T00:59:19;16.20;99.90
18506;DHT22;9382;53.242;10.438;2022-08-30T01:01:46;16.20;99.90
18506;DHT22;9382;53.242;10.438;2022-08-30T01:04:13;16.20;99.90
18506;DHT22;9382;53.242;10.438;2022-08-30T01:06:42;16.20;99.90
18506;DHT22;9382;53.242;10.438;2022-08-30T01:09:09;16.20;99.90
18506;DHT22;9382;53.242;10.438;2022-08-30T01:11:37;16.20;99.90
18506;DHT22;9382;53.242;10.438;2022-08-30T01:14:05;16.20;99.90
18506;DHT22;9382;53.242;10.438;2022-08-30T01:16:34;16.20;99.90
18506;DHT22;9382;53.242;10.438;2022-08-30T01:19:01;16.10;99.90
18506;DHT22;9382;53.242;10.438;2022-08-30T01:21:33;16.10;99.90
18506;DHT22;9382;53.242;10.438;2022-08-30T01:24:04;16.10;99.90
18506;DHT22;9382;53.242;10.438;2022-08-30T01:26:32;16.10;99.90
18506;DHT22;9382;53.242;10.438;2022-08-30T01:29:04;16.10;99.90
18506;DHT22;9382;53.242;10.438;2022-08-30T01:31:31;16.10;99.90
18506;DHT22;9382;53.242;10.438;2022-08-30T01:34:00;16.10;99.90
18506;DHT22;9382;53.242;10.438;2022-08-30T01:36:27;16.10;99.90
18506;DHT22;9382;53.242;10.438;2022-08-30T01:38:56;16.10;99.90
18506;DHT22;9382;53.242;10.438;2022-08-30T01:41:26;16.10;99.90
18506;DHT22;9382;53.242;10.438;2022-08-30T01:43:55;16.10;99.90
18506;DHT22;9382;53.242;10.438;2022-08-30T01:46:25;16.10;99.90
18506;DHT22;9382;53.242;10.438;2022-08-30T01:48:53;16.10;99.90
18506;DHT22;9382;53.242;10.438;2022-08-30T01:51:21;16.10;99.90
18506;DHT22;9382;53.242;10.438;2022-08-30T01:53:48;16.10;99.90
18506;DHT22;9382;53.242;10.438;2022-08-30T01:56:16;16.20;99.90
18506;DHT22;9382;53.242;10.438;2022-08-30T01:58:44;16.20;99.90
18506;DHT22;9382;53.242;10.438;2022-08-30T02:01:14;16.20;99.90
18506;DHT22;9382;53.242;10.438;2022-08-30T02:03:42;16.20;99.90
18506;DHT22;9382;53.242;10.438;2022-08-30T02:06:13;16.20;99.90
18506;DHT22;9382;53.242;10.438;2022-08-30T02:08:40;16.20;99.90
18506;DHT22;9382;53.242;10.438;2022-08-30T02:11:07;16.20;99.90
18506;DHT22;9382;53.242;10.438;2022-08-30T02:13:35;16.20;99.90
18506;DHT22;9382;53.242;10.438;2022-08-30T02:16:04;16.20;99.90
18506;DHT22;9382;53.242;10.438;2022-08-30T02:18:32;16.20;99.90
18506;DHT22;9382;53.242;10.438;2022-08-30T02:21:00;16.10;99.90
18506;DHT22;9382;53.242;10.438;2022-08-30T02:23:27;16.10;99.90
18506;DHT22;9382;53.242;10.438;2022-08-30T02:25:54;16.10;99.90
18506;DHT22;9382;53.242;10.438;2022-08-30T02:28:21;16.10;99.90
18506;DHT22;9382;53.242;10.438;2022-08-30T02:30:48;16.10;99.90
18506;DHT22;9382;53.242;10.438;2022-08-30T02:33:16;16.10;99.90
18506;DHT22;9382;53.242;10.438;2022-08-30T02:35:42;16.20;99.90
18506;DHT22;9382;53.242;10.438;2022-08-30T02:38:09;16.20;99.90
18506;DHT22;9382;53.242;10.438;2022-08-30T02:40:37;16.10;99.90
18506;DHT22;9382;53.242;10.438;2022-08-30T02:43:04;16.10;99.90
18506;DHT22;9382;53.242;10.438;2022-08-30T02:45:32;16.10;99.90
18506;DHT22;9382;53.242;10.438;2022-08-30T02:47:58;16.10;99.90
18506;DHT22;9382;53.242;10.438;2022-08-30T02:50:27;16.10;99.90
18506;DHT22;9382;53.242;10.438;2022-08-30T02:52:54;16.00;99.90
18506;DHT22;9382;53.242;10.438;2022-08-30T02:55:21;16.00;99.90
18506;DHT22;9382;53.242;10.438;2022-08-30T02:57:47;16.00;99.90
18506;DHT22;9382;53.242;10.438;2022-08-30T03:00:17;15.90;99.90
18506;DHT22;9382;53.242;10.438;2022-08-30T03:02:45;15.90;99.90
18506;DHT22;9382;53.242;10.438;2022-08-30T03:05:14;15.90;99.90
18506;DHT22;9382;53.242;10.438;2022-08-30T03:07:43;15.90;99.90
18506;DHT22;9382;53.242;10.438;2022-08-30T03:10:13;15.90;99.90
18506;DHT22;9382;53.242;10.438;2022-08-30T03:12:40;15.90;99.90
18506;DHT22;9382;53.242;10.438;2022-08-30T03:15:09;15.90;99.90
18506;DHT22;9382;53.242;10.438;2022-08-30T03:17:37;15.90;99.90
18506;DHT22;9382;53.242;10.438;2022-08-30T03:20:04;15.90;99.90
18506;DHT22;9382;53.242;10.438;2022-08-30T03:22:31;15.90;99.90
18506;DHT22;9382;53.242;10.438;2022-08-30T03:24:59;15.90;99.90
18506;DHT22;9382;53.242;10.438;2022-08-30T03:27:27;15.90;99.90
18506;DHT22;9382;53.242;10.438;2022-08-30T03:29:54;15.90;99.90
18506;DHT22;9382;53.242;10.438;2022-08-30T03:32:21;15.90;99.90
18506;DHT22;9382;53.242;10.438;2022-08-30T03:34:48;15.90;99.90
18506;DHT22;9382;53.242;10.438;2022-08-30T03:37:16;15.90;99.90
18506;DHT22;9382;53.242;10.438;2022-08-30T03:39:42;15.90;99.90
18506;DHT22;9382;53.242;10.438;2022-08-30T03:42:11;16.00;99.90
18506;DHT22;9382;53.242;10.438;2022-08-30T03:44:38;16.00;99.90
18506;DHT22;9382;53.242;10.438;2022-08-30T03:47:05;16.00;99.90
18506;DHT22;9382;53.242;10.438;2022-08-30T03:49:33;15.90;99.90
18506;DHT22;9382;53.242;10.438;2022-08-30T03:51:59;16.00;99.90
18506;DHT22;9382;53.242;10.438;2022-08-30T03:54:26;15.90;99.90
18506;DHT22;9382;53.242;10.438;2022-08-30T03:56:53;15.90;99.90
18506;DHT22;9382;53.242;10.438;2022-08-30T03:59:22;15.90;99.90
18506;DHT22;9382;53.242;10.438;2022-08-30T04:01:48;15.90;99.90
18506;DHT22;9382;53.242;10.438;2022-08-30T04:04:15;15.80;99.90
18506;DHT22;9382;53.242;10.438;2022-08-30T04:06:42;15.90;99.90
18506;DHT22;9382;53.242;10.438;2022-08-30T04:09:09;15.90;99.90
18506;DHT22;9382;53.242;10.438;2022-08-30T04:11:36;15.90;99.90
18506;DHT22;9382;53.242;10.438;2022-08-30T04:14:03;15.90;99.90
18506;DHT22;9382;53.242;10.438;2022-08-30T04:16:31;15.90;99.90
18506;DHT22;9382;53.242;10.438;2022-08-30T04:18:58;15.90;99.90
18506;DHT22;9382;53.242;10.438;2022-08-30T04:21:24;15.90;99.90
18506;DHT22;9382;53.242;10.438;2022-08-30T04:23:51;15.90;99.90
18506;DHT22;9382;53.242;10.438;2022-08-30T04:26:18;15.90;99.90
18506;DHT22;9382;53.242;10.438;2022-08-30T04:28:44;16.00;99.90
18506;DHT22;9382;53.242;10.438;2022-08-30T04:31:14;16.00;99.90
18506;DHT22;9382;53.242;10.438;2022-08-30T04:33:42;16.00;99.90
18506;DHT22;9382;53.242;10.438;2022-08-30T04:36:10;16.00;99.90
18506;DHT22;9382;53.242;10.438;2022-08-30T04:38:40;16.00;99.90
18506;DHT22;9382;53.242;10.438;2022-08-30T04:41:09;15.90;99.90
18506;DHT22;9382;53.242;10.438;2022-08-30T04:43:37;16.00;99.90
18506;DHT22;9382;53.242;10.438;2022-08-30T04:46:05;16.00;99.90
18506;DHT22;9382;53.242;10.438;2022-08-30T04:48:33;16.00;99.90
18506;DHT22;9382;53.242;10.438;2022-08-30T04:51:03;16.00;99.90
18506;DHT22;9382;53.242;10.438;2022-08-30T04:53:31;16.10;99.90
18506;DHT22;9382;53.242;10.438;2022-08-30T04:55:57;16.10;99.90
18506;DHT22;9382;53.242;10.438;2022-08-30T04:58:24;16.10;99.90
18506;DHT22;9382;53.242;10.438;2022-08-30T05:00:51;16.10;99.90
18506;DHT22;9382;53.242;10.438;2022-08-30T05:03:18;16.20;99.90
18506;DHT22;9382;53.242;10.438;2022-08-30T05:05:47;16.20;99.90
18506;DHT22;9382;53.242;10.438;2022-08-30T05:08:18;16.20;99.90
18506;DHT22;9382;53.242;10.438;2022-08-30T05:10:47;16.20;99.90
18506;DHT22;9382;53.242;10.438;2022-08-30T05:13:15;16.20;99.90
18506;DHT22;9382;53.242;10.438;2022-08-30T05:15:43;16.20;99.90
18506;DHT22;9382;53.242;10.438;2022-08-30T05:18:11;16.20;99.90
18506;DHT22;9382;53.242;10.438;2022-08-30T05:20:38;16.20;99.90
18506;DHT22;9382;53.242;10.438;2022-08-30T05:23:05;16.20;99.90
18506;DHT22;9382;53.242;10.438;2022-08-30T05:25:36;16.20;99.90
18506;DHT22;9382;53.242;10.438;2022-08-30T05:28:04;16.20;99.90
18506;DHT22;9382;53.242;10.438;2022-08-30T05:30:32;16.30;99.90
18506;DHT22;9382;53.242;10.438;2022-08-30T05:32:59;16.30;99.90
18506;DHT22;9382;53.242;10.438;2022-08-30T05:35:27;16.40;99.90
18506;DHT22;9382;53.242;10.438;2022-08-30T05:37:54;16.40;99.90
18506;DHT22;9382;53.242;10.438;2022-08-30T05:40:21;16.40;99.90
18506;DHT22;9382;53.242;10.438;2022-08-30T05:42:49;16.40;99.90
18506;DHT22;9382;53.242;10.438;2022-08-30T05:45:16;16.40;99.90
18506;DHT22;9382;53.242;10.438;2022-08-30T05:47:43;16.40;99.90
18506;DHT22;9382;53.242;10.438;2022-08-30T05:50:14;16.40;99.90
18506;DHT22;9382;53.242;10.438;2022-08-30T05:52:42;16.50;99.90
18506;DHT22;9382;53.242;10.438;2022-08-30T05:55:10;16.50;99.90
18506;DHT22;9382;53.242;10.438;2022-08-30T05:57:38;16.60;99.90
18506;DHT22;9382;53.242;10.438;2022-08-30T06:00:09;16.70;99.90
18506;DHT22;9382;53.242;10.438;2022-08-30T06:02:36;16.70;99.90
18506;DHT22;9382;53.242;10.438;2022-08-30T06:05:03;16.70;99.90
18506;DHT22;9382;53.242;10.438;2022-08-30T06:07:30;16.80;99.90
18506;DHT22;9382;53.242;10.438;2022-08-30T06:09:57;16.80;99.90
18506;DHT22;9382;53.242;10.438;2022-08-30T06:12:24;16.80;99.90
18506;DHT22;9382;53.242;10.438;2022-08-30T06:14:50;16.90;99.90
18506;DHT22;9382;53.242;10.438;2022-08-30T06:17:18;17.00;99.90
18506;DHT22;9382;53.242;10.438;2022-08-30T06:19:45;17.10;99.90
18506;DHT22;9382;53.242;10.438;2022-08-30T06:22:12;17.10;99.90
18506;DHT22;9382;53.242;10.438;2022-08-30T06:24:39;17.20;99.90
18506;DHT22;9382;53.242;10.438;2022-08-30T06:27:05;17.30;99.90
18506;DHT22;9382;53.242;10.438;2022-08-30T06:29:32;17.40;99.90
18506;DHT22;9382;53.242;10.438;2022-08-30T06:31:59;17.60;99.90
18506;DHT22;9382;53.242;10.438;2022-08-30T06:34:27;17.70;99.90
18506;DHT22;9382;53.242;10.438;2022-08-30T06:36:53;17.70;99.90
18506;DHT22;9382;53.242;10.438;2022-08-30T06:39:20;17.80;99.90
18506;DHT22;9382;53.242;10.438;2022-08-30T06:41:47;17.80;99.90
18506;DHT22;9382;53.242;10.438;2022-08-30T06:44:14;17.90;99.90
18506;DHT22;9382;53.242;10.438;2022-08-30T06:46:40;18.00;99.90
18506;DHT22;9382;53.242;10.438;2022-08-30T06:49:07;18.00;99.90
18506;DHT22;9382;53.242;10.438;2022-08-30T06:51:38;18.00;99.90
18506;DHT22;9382;53.242;10.438;2022-08-30T06:54:06;18.10;99.90
18506;DHT22;9382;53.242;10.438;2022-08-30T06:56:33;18.20;99.90
18506;DHT22;9382;53.242;10.438;2022-08-30T06:58:59;18.20;99.90
18506;DHT22;9382;53.242;10.438;2022-08-30T07:01:27;18.30;99.90
18506;DHT22;9382;53.242;10.438;2022-08-30T07:03:55;18.40;99.90
18506;DHT22;9382;53.242;10.438;2022-08-30T07:06:23;18.30;99.90
18506;DHT22;9382;53.242;10.438;2022-08-30T07:08:51;18.30;99.90
18506;DHT22;9382;53.242;10.438;2022-08-30T07:11:25;18.30;99.90
18506;DHT22;9382;53.242;10.438;2022-08-30T07:13:52;18.30;99.90
18506;DHT22;9382;53.242;10.438;2022-08-30T07:16:19;18.40;99.90
18506;DHT22;9382;53.242;10.438;2022-08-30T07:18:45;18.40;99.90
18506;DHT22;9382;53.242;10.438;2022-08-30T07:21:23;18.40;99.90
18506;DHT22;9382;53.242;10.438;2022-08-30T07:23:53;18.40;99.90
18506;DHT22;9382;53.242;10.438;2022-08-30T07:26:23;18.50;99.90
18506;DHT22;9382;53.242;10.438;2022-08-30T07:28:50;18.60;99.90
18506;DHT22;9382;53.242;10.438;2022-08-30T07:31:18;18.70;99.90
18506;DHT22;9382;53.242;10.438;2022-08-30T07:33:46;18.80;99.90
18506;DHT22;9382;53.242;10.438;2022-08-30T07:36:13;18.90;99.90
18506;DHT22;9382;53.242;10.438;2022-08-30T07:38:42;18.90;99.90
18506;DHT22;9382;53.242;10.438;2022-08-30T07:41:15;19.10;99.90
18506;DHT22;9382;53.242;10.438;2022-08-30T07:43:43;19.20;99.90
18506;DHT22;9382;53.242;10.438;2022-08-30T07:46:11;19.30;99.90
18506;DHT22;9382;53.242;10.438;2022-08-30T07:48:37;19.50;99.90
18506;DHT22;9382;53.242;10.438;2022-08-30T07:51:09;19.70;99.90
18506;DHT22;9382;53.242;10.438;2022-08-30T07:53:36;19.80;99.90
18506;DHT22;9382;53.242;10.438;2022-08-30T07:56:03;20.00;99.90
18506;DHT22;9382;53.242;10.438;2022-08-30T07:58:31;20.20;99.90
18506;DHT22;9382;53.242;10.438;2022-08-30T08:00:58;20.40;99.90
18506;DHT22;9382;53.242;10.438;2022-08-30T08:03:26;20.50;99.90
18506;DHT22;9382;53.242;10.438;2022-08-30T08:05:53;20.60;99.90
18506;DHT22;9382;53.242;10.438;2022-08-30T08:08:20;20.60;99.90
18506;DHT22;9382;53.242;10.438;2022-08-30T08:10:47;20.70;99.90
18506;DHT22;9382;53.242;10.438;2022-08-30T08:13:14;20.80;99.90
18506;DHT22;9382;53.242;10.438;2022-08-30T08:15:42;20.80;99.90
18506;DHT22;9382;53.242;10.438;2022-08-30T08:18:09;20.90;99.90
18506;DHT22;9382;53.242;10.438;2022-08-30T08:20:36;20.80;99.90
18506;DHT22;9382;53.242;10.438;2022-08-30T08:23:02;20.80;99.90
18506;DHT22;9382;53.242;10.438;2022-08-30T08:25:30;20.90;99.90
18506;DHT22;9382;53.242;10.438;2022-08-30T08:27:56;20.80;99.90
18506;DHT22;9382;53.242;10.438;2022-08-30T08:30:23;20.70;99.90
18506;DHT22;9382;53.242;10.438;2022-08-30T08:32:51;20.60;99.90
18506;DHT22;9382;53.242;10.438;2022-08-30T08:35:18;20.70;99.90
18506;DHT22;9382;53.242;10.438;2022-08-30T08:37:45;20.60;99.90
18506;DHT22;9382;53.242;10.438;2022-08-30T08:40:14;20.60;99.90
18506;DHT22;9382;53.242;10.438;2022-08-30T08:42:53;20.60;99.90
18506;DHT22;9382;53.242;10.438;2022-08-30T08:45:32;20.60;99.90
18506;DHT22;9382;53.242;10.438;2022-08-30T08:48:07;20.60;99.90
18506;DHT22;9382;53.242;10.438;2022-08-30T08:50:35;20.60;99.90
18506;DHT22;9382;53.242;10.438;2022-08-30T08:53:26;20.70;99.90
18506;DHT22;9382;53.242;10.438;2022-08-30T08:56:02;20.60;99.90
18506;DHT22;9382;53.242;10.438;2022-08-30T08:58:33;20.60;99.90
18506;DHT22;9382;53.242;10.438;2022-08-30T09:01:00;20.50;99.90
18506;DHT22;9382;53.242;10.438;2022-08-30T09:03:29;20.50;99.90
18506;DHT22;9382;53.242;10.438;2022-08-30T09:05:57;20.40;99.90
18506;DHT22;9382;53.242;10.438;2022-08-30T09:08:24;20.50;99.90
18506;DHT22;9382;53.242;10.438;2022-08-30T09:10:59;20.50;99.90
18506;DHT22;9382;53.242;10.438;2022-08-30T09:13:26;20.50;99.90
18506;DHT22;9382;53.242;10.438;2022-08-30T09:15:55;20.50;99.90
18506;DHT22;9382;53.242;10.438;2022-08-30T09:18:42;20.50;99.90
18506;DHT22;9382;53.242;10.438;2022-08-30T09:21:11;20.70;99.90
18506;DHT22;9382;53.242;10.438;2022-08-30T09:23:47;21.00;99.90
18506;DHT22;9382;53.242;10.438;2022-08-30T09:26:26;21.20;99.90
18506;DHT22;9382;53.242;10.438;2022-08-30T09:28:53;21.40;99.90
18506;DHT22;9382;53.242;10.438;2022-08-30T09:31:22;21.60;99.90
18506;DHT22;9382;53.242;10.438;2022-08-30T09:33:59;21.70;99.90
18506;DHT22;9382;53.242;10.438;2022-08-30T09:36:31;21.80;99.90
18506;DHT22;9382;53.242;10.438;2022-08-30T09:39:00;21.80;99.90
18506;DHT22;9382;53.242;10.438;2022-08-30T09:41:35;21.70;99.90
18506;DHT22;9382;53.242;10.438;2022-08-30T09:44:08;21.60;99.90
18506;DHT22;9382;53.242;10.438;2022-08-30T09:46:43;21.60;99.90
18506;DHT22;9382;53.242;10.438;2022-08-30T09:49:32;21.60;99.90
18506;DHT22;9382;53.242;10.438;2022-08-30T09:52:17;21.50;99.90
18506;DHT22;9382;53.242;10.438;2022-08-30T09:55:12;21.40;99.90
18506;DHT22;9382;53.242;10.438;2022-08-30T09:57:49;21.30;99.90
18506;DHT22;9382;53.242;10.438;2022-08-30T10:00:20;21.30;99.90
18506;DHT22;9382;53.242;10.438;2022-08-30T10:03:01;21.30;99.90
18506;DHT22;9382;53.242;10.438;2022-08-30T10:05:50;21.30;99.90
18506;DHT22;9382;53.242;10.438;2022-08-30T10:08:23;21.30;99.90
18506;DHT22;9382;53.242;10.438;2022-08-30T10:10:57;21.30;99.90
18506;DHT22;9382;53.242;10.438;2022-08-30T10:13:36;21.40;99.90
18506;DHT22;9382;53.242;10.438;2022-08-30T10:16:12;21.50;99.90
18506;DHT22;9382;53.242;10.438;2022-08-30T10:18:46;21.60;99.90
18506;DHT22;9382;53.242;10.438;2022-08-30T10:21:23;21.70;99.90
18506;DHT22;9382;53.242;10.438;2022-08-30T10:23:55;21.90;99.90
18506;DHT22;9382;53.242;10.438;2022-08-30T10:26:27;22.00;99.90
18506;DHT22;9382;53.242;10.438;2022-08-30T10:28:58;22.20;99.90
18506;DHT22;9382;53.242;10.438;2022-08-30T10:31:30;22.30;99.90
18506;DHT22;9382;53.242;10.438;2022-08-30T10:34:03;22.20;99.90
18506;DHT22;9382;53.242;10.438;2022-08-30T10:36:36;22.20;99.90
18506;DHT22;9382;53.242;10.438;2022-08-30T10:39:06;22.20;99.90
18506;DHT22;9382;53.242;10.438;2022-08-30T10:41:37;22.30;99.90
18506;DHT22;9382;53.242;10.438;2022-08-30T10:44:09;22.50;99.90
18506;DHT22;9382;53.242;10.438;2022-08-30T10:46:46;22.70;99.90
18506;DHT22;9382;53.242;10.438;2022-08-30T10:49:16;22.90;99.90
18506;DHT22;9382;53.242;10.438;2022-08-30T10:51:49;23.30;99.90
18506;DHT22;9382;53.242;10.438;2022-08-30T10:54:24;23.90;99.90
18506;DHT22;9382;53.242;10.438;2022-08-30T10:56:56;24.30;99.90
18506;DHT22;9382;53.242;10.438;2022-08-30T10:59:23;24.60;99.90
18506;DHT22;9382;53.242;10.438;2022-08-30T11:02:31;24.60;99.90
18506;DHT22;9382;53.242;10.438;2022-08-30T11:05:12;24.40;99.90
18506;DHT22;9382;53.242;10.438;2022-08-30T11:07:48;24.30;99.90
18506;DHT22;9382;53.242;10.438;2022-08-30T11:10:25;24.40;99.90
18506;DHT22;9382;53.242;10.438;2022-08-30T11:12:59;24.40;99.90
18506;DHT22;9382;53.242;10.438;2022-08-30T11:15:29;24.50;99.90
18506;DHT22;9382;53.242;10.438;2022-08-30T11:18:00;24.40;99.90
18506;DHT22;9382;53.242;10.438;2022-08-30T11:20:35;24.40;99.90
18506;DHT22;9382;53.242;10.438;2022-08-30T11:23:26;24.60;99.90
18506;DHT22;9382;53.242;10.438;2022-08-30T11:25:55;25.00;99.90
18506;DHT22;9382;53.242;10.438;2022-08-30T11:31:40;26.40;99.90
18506;DHT22;9382;53.242;10.438;2022-08-30T11:34:09;27.30;99.90
18506;DHT22;9382;53.242;10.438;2022-08-30T11:37:00;28.10;99.90
18506;DHT22;9382;53.242;10.438;2022-08-30T11:39:54;28.30;99.90
18506;DHT22;9382;53.242;10.438;2022-08-30T11:42:28;28.10;99.90
18506;DHT22;9382;53.242;10.438;2022-08-30T11:48:02;27.00;99.90
18506;DHT22;9382;53.242;10.438;2022-08-30T11:50:35;26.90;99.90
18506;DHT22;9382;53.242;10.438;2022-08-30T11:53:09;26.70;99.90
18506;DHT22;9382;53.242;10.438;2022-08-30T11:55:52;27.30;99.90
18506;DHT22;9382;53.242;10.438;2022-08-30T11:58:30;27.40;99.90
18506;DHT22;9382;53.242;10.438;2022-08-30T12:04:00;26.20;99.90
18506;DHT22;9382;53.242;10.438;2022-08-30T12:06:49;25.50;99.90
18506;DHT22;9382;53.242;10.438;2022-08-30T12:12:51;24.10;99.90
18506;DHT22;9382;53.242;10.438;2022-08-30T12:18:31;23.20;99.90
18506;DHT22;9382;53.242;10.438;2022-08-30T12:21:03;23.00;99.90
18506;DHT22;9382;53.242;10.438;2022-08-30T12:23:40;22.90;99.90
18506;DHT22;9382;53.242;10.438;2022-08-30T12:26:15;22.90;99.90
18506;DHT22;9382;53.242;10.438;2022-08-30T12:28:44;22.90;99.90
18506;DHT22;9382;53.242;10.438;2022-08-30T12:31:17;22.90;99.90
18506;DHT22;9382;53.242;10.438;2022-08-30T12:33:48;22.80;99.90
18506;DHT22;9382;53.242;10.438;2022-08-30T12:36:30;22.70;99.90
18506;DHT22;9382;53.242;10.438;2022-08-30T12:39:08;22.80;99.90
18506;DHT22;9382;53.242;10.438;2022-08-30T12:41:35;22.90;99.90
18506;DHT22;9382;53.242;10.438;2022-08-30T12:44:04;22.90;99.90
18506;DHT22;9382;53.242;10.438;2022-08-30T12:46:33;23.00;99.90
18506;DHT22;9382;53.242;10.438;2022-08-30T12:49:00;23.70;99.90
18506;DHT22;9382;53.242;10.438;2022-08-30T12:51:36;24.30;99.90
18506;DHT22;9382;53.242;10.438;2022-08-30T12:54:13;24.60;99.90
18506;DHT22;9382;53.242;10.438;2022-08-30T12:56:53;25.10;99.90
18506;DHT22;9382;53.242;10.438;2022-08-30T12:59:43;25.90;99.90
18506;DHT22;9382;53.242;10.438;2022-08-30T13:02:13;26.10;99.90
18506;DHT22;9382;53.242;10.438;2022-08-30T13:04:41;25.90;99.90
18506;DHT22;9382;53.242;10.438;2022-08-30T13:07:08;25.60;99.90
18506;DHT22;9382;53.242;10.438;2022-08-30T13:09:37;25.20;99.90
18506;DHT22;9382;53.242;10.438;2022-08-30T13:12:08;24.60;99.90
18506;DHT22;9382;53.242;10.438;2022-08-30T13:14:37;24.30;99.90
18506;DHT22;9382;53.242;10.438;2022-08-30T13:17:21;24.10;99.90
18506;DHT22;9382;53.242;10.438;2022-08-30T13:20:00;23.70;99.90
18506;DHT22;9382;53.242;10.438;2022-08-30T13:22:29;23.50;99.90
18506;DHT22;9382;53.242;10.438;2022-08-30T13:24:56;23.40;99.90
18506;DHT22;9382;53.242;10.438;2022-08-30T13:27:24;23.40;99.90
18506;DHT22;9382;53.242;10.438;2022-08-30T13:29:51;23.30;99.90
18506;DHT22;9382;53.242;10.438;2022-08-30T13:32:20;23.30;99.90
18506;DHT22;9382;53.242;10.438;2022-08-30T13:34:47;23.30;99.90
18506;DHT22;9382;53.242;10.438;2022-08-30T13:37:16;23.10;99.90
18506;DHT22;9382;53.242;10.438;2022-08-30T13:39:43;23.00;99.90
18506;DHT22;9382;53.242;10.438;2022-08-30T13:42:10;22.90;99.90
18506;DHT22;9382;53.242;10.438;2022-08-30T13:44:37;22.80;99.90
18506;DHT22;9382;53.242;10.438;2022-08-30T13:47:04;22.80;99.90
18506;DHT22;9382;53.242;10.438;2022-08-30T13:49:34;22.80;99.90
18506;DHT22;9382;53.242;10.438;2022-08-30T13:52:01;23.00;99.90
18506;DHT22;9382;53.242;10.438;2022-08-30T13:54:28;23.20;99.90
18506;DHT22;9382;53.242;10.438;2022-08-30T13:56:55;23.50;99.90
18506;DHT22;9382;53.242;10.438;2022-08-30T13:59:22;23.90;99.90
18506;DHT22;9382;53.242;10.438;2022-08-30T14:01:52;24.80;99.90
18506;DHT22;9382;53.242;10.438;2022-08-30T14:04:19;25.60;99.90
18506;DHT22;9382;53.242;10.438;2022-08-30T14:06:47;27.00;99.90
18506;DHT22;9382;53.242;10.438;2022-08-30T14:09:14;29.00;99.90
18506;DHT22;9382;53.242;10.438;2022-08-30T14:11:41;30.00;99.90
18506;DHT22;9382;53.242;10.438;2022-08-30T14:14:08;29.70;99.90
18506;DHT22;9382;53.242;10.438;2022-08-30T14:16:37;29.10;99.90
18506;DHT22;9382;53.242;10.438;2022-08-30T14:19:04;28.70;99.90
18506;DHT22;9382;53.242;10.438;2022-08-30T14:21:31;28.70;99.90
18506;DHT22;9382;53.242;10.438;2022-08-30T14:23:59;28.30;99.90
18506;DHT22;9382;53.242;10.438;2022-08-30T14:26:28;28.10;99.90
18506;DHT22;9382;53.242;10.438;2022-08-30T14:28:55;28.10;99.90
18506;DHT22;9382;53.242;10.438;2022-08-30T14:31:22;28.30;99.90
18506;DHT22;9382;53.242;10.438;2022-08-30T14:33:48;28.60;99.90
18506;DHT22;9382;53.242;10.438;2022-08-30T14:36:15;29.60;99.90
18506;DHT22;9382;53.242;10.438;2022-08-30T14:38:42;30.20;99.90
18506;DHT22;9382;53.242;10.438;2022-08-30T14:41:10;30.50;99.90
18506;DHT22;9382;53.242;10.438;2022-08-30T14:43:37;31.10;99.90
18506;DHT22;9382;53.242;10.438;2022-08-30T14:46:04;30.80;99.90
18506;DHT22;9382;53.242;10.438;2022-08-30T14:48:31;30.60;99.90
18506;DHT22;9382;53.242;10.438;2022-08-30T14:50:58;31.20;99.90
18506;DHT22;9382;53.242;10.438;2022-08-30T14:53:25;32.20;99.90
18506;DHT22;9382;53.242;10.438;2022-08-30T14:55:51;31.00;98.80
18506;DHT22;9382;53.242;10.438;2022-08-30T14:58:19;30.00;99.80
18506;DHT22;9382;53.242;10.438;2022-08-30T15:00:49;31.20;99.90
18506;DHT22;9382;53.242;10.438;2022-08-30T15:03:16;32.30;99.00
18506;DHT22;9382;53.242;10.438;2022-08-30T15:05:47;31.50;96.00
18506;DHT22;9382;53.242;10.438;2022-08-30T15:08:14;29.90;99.50
18506;DHT22;9382;53.242;10.438;2022-08-30T15:10:41;28.60;99.50
18506;DHT22;9382;53.242;10.438;2022-08-30T15:13:08;27.70;99.90
18506;DHT22;9382;53.242;10.438;2022-08-30T15:15:36;26.90;99.90
18506;DHT22;9382;53.242;10.438;2022-08-30T15:18:03;26.10;99.90
18506;DHT22;9382;53.242;10.438;2022-08-30T15:20:30;25.50;99.90
18506;DHT22;9382;53.242;10.438;2022-08-30T15:22:56;25.10;99.90
18506;DHT22;9382;53.242;10.438;2022-08-30T15:25:23;24.70;99.90
18506;DHT22;9382;53.242;10.438;2022-08-30T15:27:50;24.40;99.90
18506;DHT22;9382;53.242;10.438;2022-08-30T15:30:17;24.30;99.90
18506;DHT22;9382;53.242;10.438;2022-08-30T15:32:45;24.40;99.90
18506;DHT22;9382;53.242;10.438;2022-08-30T15:35:12;24.40;99.90
18506;DHT22;9382;53.242;10.438;2022-08-30T15:37:38;24.50;99.90
18506;DHT22;9382;53.242;10.438;2022-08-30T15:40:06;24.90;99.90
18506;DHT22;9382;53.242;10.438;2022-08-30T15:42:33;26.20;99.90
18506;DHT22;9382;53.242;10.438;2022-08-30T15:45:00;28.30;99.90
18506;DHT22;9382;53.242;10.438;2022-08-30T15:47:26;30.50;99.70
18506;DHT22;9382;53.242;10.438;2022-08-30T15:49:56;32.20;96.80
18506;DHT22;9382;53.242;10.438;2022-08-30T15:52:23;33.20;94.10
18506;DHT22;9382;53.242;10.438;2022-08-30T15:54:50;33.80;94.10
18506;DHT22;9382;53.242;10.438;2022-08-30T15:57:17;34.30;90.70
18506;DHT22;9382;53.242;10.438;2022-08-30T15:59:44;34.60;87.40